createdAt,value
2022-10-21T00:00:39.098Z,67
2022-10-21T00:01:41.130Z,68
2022-10-21T00:02:43.158Z,69
2022-10-21T00:03:45.120Z,69
2022-10-21T00:04:47.298Z,68
2022-10-21T00:05:49.078Z,67
2022-10-21T00:06:51.178Z,67
2022-10-21T00:07:53.117Z,67
2022-10-21T00:08:55.189Z,67
2022-10-21T00:09:57.040Z,67
2022-10-21T00:10:59.117Z,69
2022-10-21T00:12:01.168Z,69
2022-10-21T00:13:03.118Z,70
2022-10-21T00:14:05.084Z,69
2022-10-21T00:15:07.163Z,69
2022-10-21T00:16:09.143Z,69
2022-10-21T00:17:11.046Z,69
2022-10-21T00:18:13.097Z,68
2022-10-21T00:19:15.117Z,69
2022-10-21T00:20:17.173Z,70
2022-10-21T00:21:19.158Z,70
2022-10-21T00:22:21.101Z,70
2022-10-21T00:23:23.095Z,70
2022-10-21T00:24:25.107Z,69
2022-10-21T00:25:27.178Z,69
2022-10-21T00:26:29.137Z,70
2022-10-21T00:27:31.112Z,69
2022-10-21T00:28:33.137Z,69
2022-10-21T00:29:35.144Z,69
2022-10-21T00:30:37.097Z,69
2022-10-21T00:31:39.144Z,70
2022-10-21T00:32:41.199Z,71
2022-10-21T00:33:43.099Z,70
2022-10-21T00:34:45.058Z,71
2022-10-21T00:35:47.119Z,69
2022-10-21T00:36:49.177Z,69
2022-10-21T00:37:51.109Z,69
2022-10-21T00:38:53.221Z,69
2022-10-21T00:39:55.138Z,69
2022-10-21T00:40:57.184Z,70
2022-10-21T00:41:59.118Z,70
2022-10-21T00:43:01.176Z,69
2022-10-21T00:44:03.158Z,69
2022-10-21T00:45:05.126Z,69
2022-10-21T00:46:07.140Z,69
2022-10-21T00:47:09.109Z,70
2022-10-21T00:48:11.121Z,70
2022-10-21T00:49:13.204Z,71
2022-10-21T00:50:15.160Z,71
2022-10-21T00:51:17.139Z,71
2022-10-21T00:52:19.197Z,71
2022-10-21T00:53:21.119Z,71
2022-10-21T00:54:23.142Z,70
2022-10-21T00:55:25.177Z,70
2022-10-21T00:56:27.158Z,71
2022-10-21T00:57:29.097Z,70
2022-10-21T00:58:31.122Z,69
2022-10-21T00:59:33.118Z,71
2022-10-21T01:00:35.104Z,70
2022-10-21T01:01:37.155Z,70
2022-10-21T01:02:39.104Z,70
2022-10-21T01:03:41.117Z,70
2022-10-21T01:04:43.118Z,70
2022-10-21T01:05:45.208Z,70
2022-10-21T01:06:47.238Z,70
2022-10-21T01:07:49.157Z,71
2022-10-21T01:08:51.177Z,70
2022-10-21T01:09:53.237Z,70
2022-10-21T01:10:55.033Z,70
2022-10-21T01:11:57.142Z,71
2022-10-21T01:12:59.101Z,71
2022-10-21T01:14:01.243Z,71
2022-10-21T01:16:05.184Z,70
2022-10-21T01:17:15.528Z,70
2022-10-21T01:18:09.198Z,69
2022-10-21T01:19:11.162Z,70
2022-10-21T01:20:13.098Z,70
2022-10-21T01:21:15.159Z,70
2022-10-21T01:22:17.178Z,71
2022-10-21T01:23:19.101Z,71
2022-10-21T01:24:21.153Z,71
2022-10-21T01:25:23.166Z,70
2022-10-21T01:26:25.121Z,71
2022-10-21T01:27:27.158Z,70
2022-10-21T01:28:29.178Z,70
2022-10-21T01:29:31.377Z,71
2022-10-21T01:30:33.160Z,70
2022-10-21T01:31:35.188Z,70
2022-10-21T01:32:37.100Z,71
2022-10-21T01:33:39.159Z,71
2022-10-21T01:34:41.179Z,68
2022-10-21T01:35:43.177Z,68
2022-10-21T01:36:45.199Z,68
2022-10-21T01:37:47.226Z,68
2022-10-21T01:38:49.197Z,68
2022-10-21T01:39:51.243Z,68
2022-10-21T01:40:53.257Z,68
2022-10-21T01:41:55.211Z,68
2022-10-21T01:42:57.218Z,67
2022-10-21T01:43:59.159Z,67
2022-10-21T01:45:01.264Z,67
2022-10-21T01:46:03.257Z,67
2022-10-21T01:47:05.166Z,66
2022-10-21T01:48:07.179Z,67
2022-10-21T01:49:09.199Z,66
2022-10-21T01:50:11.198Z,67
2022-10-21T01:51:13.349Z,67
2022-10-21T01:52:15.159Z,67
2022-10-21T01:53:17.060Z,66
2022-10-21T01:54:19.158Z,66
2022-10-21T01:55:21.125Z,67
2022-10-21T01:56:23.178Z,67
2022-10-21T01:57:25.198Z,67
2022-10-21T01:58:27.185Z,66
2022-10-21T01:59:29.055Z,65
2022-10-21T02:03:49.254Z,66
2022-10-21T02:04:51.139Z,64
2022-10-21T02:05:53.522Z,64
2022-10-21T02:06:55.228Z,64
2022-10-21T02:07:57.179Z,65
2022-10-21T02:08:59.289Z,65
2022-10-21T02:10:01.280Z,65
2022-10-21T02:11:03.162Z,65
2022-10-21T02:12:05.101Z,65
2022-10-21T02:13:06.122Z,65
2022-10-21T02:14:08.100Z,65
2022-10-21T02:15:10.208Z,65
2022-10-21T02:16:12.242Z,65
2022-10-21T02:17:14.263Z,65
2022-10-21T02:18:16.201Z,65
2022-10-21T02:19:18.266Z,65
2022-10-21T02:20:20.539Z,65
2022-10-21T02:21:22.205Z,65
2022-10-21T02:22:24.143Z,65
2022-10-21T02:23:26.240Z,66
2022-10-21T02:24:28.241Z,65
2022-10-21T02:25:30.340Z,65
2022-10-21T02:26:32.241Z,65
2022-10-21T02:27:34.281Z,66
2022-10-21T02:28:36.350Z,67
2022-10-21T02:29:38.240Z,66
2022-10-21T02:30:40.242Z,66
2022-10-21T02:31:42.620Z,66
2022-10-21T02:32:44.262Z,67
2022-10-21T02:33:46.281Z,66
2022-10-21T02:34:48.222Z,66
2022-10-21T02:35:50.161Z,67
2022-10-21T02:36:52.306Z,68
2022-10-21T02:37:54.320Z,67
2022-10-21T02:38:56.222Z,67
2022-10-21T02:39:58.121Z,67
2022-10-21T02:41:00.248Z,67
2022-10-21T02:42:02.200Z,68
2022-10-21T02:43:04.221Z,68
2022-10-21T02:44:06.140Z,68
2022-10-21T02:45:08.176Z,68
2022-10-21T02:46:10.221Z,68
2022-10-21T02:47:12.237Z,68
2022-10-21T02:48:14.321Z,68
2022-10-21T02:49:16.201Z,68
2022-10-21T02:50:18.228Z,67
2022-10-21T02:51:20.342Z,67
2022-10-21T02:52:22.261Z,68
2022-10-21T02:53:24.161Z,68
2022-10-21T02:54:26.201Z,69
2022-10-21T02:55:28.245Z,67
2022-10-21T02:57:32.219Z,68
2022-10-21T02:58:34.303Z,67
2022-10-21T02:59:36.162Z,68
2022-10-21T03:00:38.240Z,67
2022-10-21T03:01:40.241Z,67
2022-10-21T03:02:42.781Z,67
2022-10-21T03:03:44.275Z,69
2022-10-21T03:04:46.102Z,68
2022-10-21T03:05:48.285Z,67
2022-10-21T03:06:50.241Z,67
2022-10-21T03:07:52.319Z,67
2022-10-21T03:08:54.330Z,66
2022-10-21T03:09:56.182Z,66
2022-10-21T03:10:58.214Z,66
2022-10-21T03:12:00.181Z,67
2022-10-21T03:13:02.360Z,66
2022-10-21T03:14:04.241Z,66
2022-10-21T03:15:06.250Z,66
2022-10-21T03:16:08.264Z,66
2022-10-21T03:17:10.199Z,66
2022-10-21T03:18:12.223Z,65
2022-10-21T03:19:14.266Z,65
2022-10-21T03:20:16.259Z,66
2022-10-21T03:21:18.328Z,66
2022-10-21T03:22:20.183Z,66
2022-10-21T03:23:22.299Z,66
2022-10-21T03:24:28.643Z,66
2022-10-21T03:25:26.320Z,66
2022-10-21T03:26:28.254Z,67
2022-10-21T03:28:32.220Z,66
2022-10-21T03:29:34.322Z,66
2022-10-21T03:30:36.279Z,66
2022-10-21T03:31:38.220Z,66
2022-10-21T03:32:40.533Z,67
2022-10-21T03:33:42.779Z,67
2022-10-21T03:34:44.243Z,67
2022-10-21T03:35:46.240Z,67
2022-10-21T03:36:48.300Z,67
2022-10-21T03:37:50.326Z,68
2022-10-21T03:38:52.277Z,66
2022-10-21T03:39:54.339Z,67
2022-10-21T03:40:56.339Z,67
2022-10-21T03:41:58.263Z,66
2022-10-21T03:43:00.263Z,67
2022-10-21T03:44:02.188Z,67
2022-10-21T03:45:04.199Z,67
2022-10-21T03:46:06.220Z,66
2022-10-21T03:47:08.220Z,66
2022-10-21T03:48:10.319Z,66
2022-10-21T03:49:16.989Z,66
2022-10-21T03:50:15.743Z,65
2022-10-21T03:51:16.159Z,66
2022-10-21T03:52:18.213Z,66
2022-10-21T03:53:38.006Z,66
2022-10-21T03:54:22.259Z,66
2022-10-21T03:55:24.383Z,66
2022-10-21T03:56:26.302Z,66
2022-10-21T03:57:28.260Z,66
2022-10-21T03:58:30.289Z,66
2022-10-21T03:59:32.343Z,66
2022-10-21T04:00:34.321Z,65
2022-10-21T04:01:36.281Z,65
2022-10-21T04:02:38.573Z,66
2022-10-21T04:03:40.180Z,66
2022-10-21T04:04:42.260Z,66
2022-10-21T04:05:44.260Z,66
2022-10-21T04:06:46.360Z,66
2022-10-21T04:07:49.372Z,65
2022-10-21T04:08:50.323Z,65
2022-10-21T04:09:52.373Z,65
2022-10-21T04:11:56.280Z,65
2022-10-21T04:12:58.219Z,66
2022-10-21T04:14:00.201Z,65
2022-10-21T04:15:02.244Z,66
2022-10-21T04:16:04.346Z,67
2022-10-21T04:17:07.920Z,66
2022-10-21T04:18:08.221Z,64
2022-10-21T04:19:10.180Z,65
2022-10-21T04:20:12.220Z,65
2022-10-21T04:21:14.399Z,65
2022-10-21T04:22:16.240Z,65
2022-10-21T04:23:18.344Z,66
2022-10-21T04:24:20.240Z,65
2022-10-21T04:25:22.263Z,65
2022-10-21T04:26:24.313Z,64
2022-10-21T04:27:26.280Z,65
2022-10-21T04:28:28.261Z,65
2022-10-21T04:29:30.419Z,65
2022-10-21T04:30:32.260Z,64
2022-10-21T04:31:34.280Z,64
2022-10-21T04:32:36.420Z,64
2022-10-21T04:33:38.202Z,64
2022-10-21T04:34:40.280Z,65
2022-10-21T04:35:42.230Z,65
2022-10-21T04:36:44.388Z,65
2022-10-21T04:37:46.256Z,66
2022-10-21T04:38:48.346Z,65
2022-10-21T04:39:50.290Z,66
2022-10-21T04:40:52.260Z,65
2022-10-21T04:41:54.502Z,64
2022-10-21T04:42:56.272Z,64
2022-10-21T04:43:58.257Z,64
2022-10-21T04:45:00.365Z,64
2022-10-21T04:46:02.320Z,65
2022-10-21T04:47:04.299Z,64
2022-10-21T04:48:06.341Z,64
2022-10-21T04:49:08.267Z,65
2022-10-21T04:50:10.299Z,65
2022-10-21T04:51:12.321Z,65
2022-10-21T04:52:14.382Z,64
2022-10-21T04:53:16.227Z,65
2022-10-21T04:54:18.233Z,64
2022-10-21T04:55:20.184Z,65
2022-10-21T04:56:22.211Z,66
2022-10-21T04:57:24.340Z,65
2022-10-21T04:58:26.300Z,66
2022-10-21T04:59:28.210Z,65
2022-10-21T05:00:30.274Z,65
2022-10-21T05:01:32.474Z,65
2022-10-21T05:02:34.361Z,65
2022-10-21T05:03:36.318Z,65
2022-10-21T05:04:38.319Z,64
2022-10-21T05:05:40.302Z,64
2022-10-21T05:06:42.260Z,64
2022-10-21T05:07:44.304Z,65
2022-10-21T05:08:46.710Z,64
2022-10-21T05:09:48.245Z,65
2022-10-21T05:10:50.279Z,64
2022-10-21T05:11:52.243Z,62
2022-10-21T05:12:54.542Z,62
2022-10-21T05:13:56.341Z,62
2022-10-21T05:14:58.259Z,62
2022-10-21T05:16:00.259Z,62
2022-10-21T05:17:02.301Z,65
2022-10-21T05:18:04.282Z,64
2022-10-21T05:19:06.341Z,62
2022-10-21T05:20:08.380Z,64
2022-10-21T05:21:10.345Z,65
2022-10-21T05:22:12.245Z,61
2022-10-21T05:23:14.509Z,62
2022-10-21T05:24:16.369Z,61
2022-10-21T05:25:18.227Z,61
2022-10-21T05:26:20.300Z,62
2022-10-21T05:27:22.264Z,62
2022-10-21T05:28:24.241Z,61
2022-10-21T05:29:26.223Z,61
2022-10-21T05:30:28.354Z,58
2022-10-21T05:31:30.337Z,59
2022-10-21T05:32:32.279Z,59
2022-10-21T05:33:34.336Z,57
2022-10-21T05:34:36.310Z,57
2022-10-21T05:35:38.192Z,57
2022-10-21T05:36:40.280Z,58
2022-10-21T05:37:42.299Z,58
2022-10-21T05:38:44.282Z,56
2022-10-21T05:39:46.264Z,56
2022-10-21T05:40:48.403Z,56
2022-10-21T05:41:50.299Z,56
2022-10-21T05:42:52.219Z,56
2022-10-21T05:43:54.571Z,56
2022-10-21T05:44:56.247Z,55
2022-10-21T05:45:58.410Z,56
2022-10-21T05:47:00.310Z,55
2022-10-21T05:48:02.304Z,54
2022-10-21T05:49:04.237Z,56
2022-10-21T05:50:06.340Z,55
2022-10-21T05:51:08.648Z,55
2022-10-21T05:52:10.513Z,55
2022-10-21T05:53:12.263Z,55
2022-10-21T05:54:14.399Z,54
2022-10-21T05:55:16.341Z,54
2022-10-21T05:56:18.486Z,54
2022-10-21T05:57:20.339Z,54
2022-10-21T05:58:22.390Z,53
2022-10-21T05:59:24.579Z,54
2022-10-21T06:00:26.341Z,54
2022-10-21T06:01:28.629Z,53
2022-10-21T06:02:30.281Z,53
2022-10-21T06:03:32.221Z,54
2022-10-21T06:04:36.378Z,53
2022-10-21T06:05:36.299Z,53
2022-10-21T06:06:38.386Z,52
2022-10-21T06:07:40.654Z,53
2022-10-21T06:08:42.433Z,52
2022-10-21T06:09:44.300Z,53
2022-10-21T06:10:46.282Z,52
2022-10-21T06:11:48.359Z,52
2022-10-21T06:12:50.300Z,52
2022-10-21T06:13:52.294Z,54
2022-10-21T06:14:54.541Z,53
2022-10-21T06:15:56.501Z,53
2022-10-21T06:16:58.205Z,52
2022-10-21T06:18:00.192Z,54
2022-10-21T06:19:02.273Z,53
2022-10-21T06:20:04.321Z,54
2022-10-21T06:21:06.339Z,52
2022-10-21T06:22:08.348Z,52
2022-10-21T06:23:12.464Z,55
2022-10-21T06:24:14.773Z,54
2022-10-21T06:26:19.327Z,53
2022-10-21T06:27:21.360Z,53
2022-10-21T06:28:23.200Z,54
2022-10-21T06:29:25.385Z,54
2022-10-21T06:30:27.462Z,56
2022-10-21T06:31:29.297Z,56
2022-10-21T06:32:31.321Z,54
2022-10-21T06:33:33.337Z,54
2022-10-21T06:34:35.239Z,55
2022-10-21T06:35:37.289Z,54
2022-10-21T06:36:39.299Z,54
2022-10-21T06:37:41.464Z,56
2022-10-21T06:38:43.358Z,55
2022-10-21T06:39:45.223Z,55
2022-10-21T06:40:47.287Z,55
2022-10-21T06:41:49.273Z,55
2022-10-21T06:42:51.313Z,55
2022-10-21T06:43:53.316Z,55
2022-10-21T06:44:56.656Z,54
2022-10-21T06:45:57.223Z,54
2022-10-21T06:46:59.979Z,55
2022-10-21T06:48:01.337Z,55
2022-10-21T06:49:03.357Z,54
2022-10-21T06:50:05.358Z,55
2022-10-21T06:51:07.304Z,54
2022-10-21T06:52:09.376Z,56
2022-10-21T06:53:11.298Z,55
2022-10-21T06:54:13.337Z,54
2022-10-21T06:55:15.397Z,55
2022-10-21T06:56:17.298Z,55
2022-10-21T06:57:19.358Z,55
2022-10-21T06:58:21.544Z,55
2022-10-21T06:59:23.297Z,55
2022-10-21T07:00:25.285Z,55
2022-10-21T07:01:34.152Z,56
2022-10-21T07:02:29.317Z,56
2022-10-21T07:03:31.317Z,56
2022-10-21T07:04:33.208Z,55
2022-10-21T07:05:34.297Z,55
2022-10-21T07:06:36.278Z,55
2022-10-21T07:07:38.682Z,55
2022-10-21T07:08:47.115Z,56
2022-10-21T07:09:42.464Z,57
2022-10-21T07:10:44.337Z,56
2022-10-21T07:11:46.325Z,56
2022-10-21T07:12:48.305Z,56
2022-10-21T07:13:50.353Z,56
2022-10-21T07:14:52.313Z,56
2022-10-21T07:16:56.336Z,56
2022-10-21T07:17:58.337Z,55
2022-10-21T07:19:00.364Z,56
2022-10-21T07:20:02.358Z,56
2022-10-21T07:21:04.278Z,57
2022-10-21T07:22:06.346Z,56
2022-10-21T07:23:08.303Z,56
2022-10-21T07:24:10.346Z,57
2022-10-21T07:25:12.318Z,56
2022-10-21T07:26:14.379Z,56
2022-10-21T07:27:16.337Z,56
2022-10-21T07:28:18.257Z,55
2022-10-21T07:29:20.330Z,56
2022-10-21T07:30:22.258Z,56
2022-10-21T07:31:24.318Z,56
2022-10-21T07:32:26.359Z,56
2022-10-21T07:33:28.417Z,56
2022-10-21T07:34:30.317Z,56
2022-10-21T07:35:32.358Z,57
2022-10-21T07:36:34.289Z,57
2022-10-21T07:37:36.681Z,57
2022-10-21T07:38:38.338Z,57
2022-10-21T07:39:40.317Z,56
2022-10-21T07:40:42.260Z,57
2022-10-21T07:41:44.338Z,58
2022-10-21T07:42:46.338Z,58
2022-10-21T07:43:48.350Z,58
2022-10-21T07:44:50.392Z,58
2022-10-21T07:45:52.337Z,57
2022-10-21T07:46:54.800Z,58
2022-10-21T07:47:56.337Z,56
2022-10-21T07:48:58.362Z,56
2022-10-21T07:50:00.399Z,57
2022-10-21T07:51:02.381Z,56
2022-10-21T07:52:04.428Z,56
2022-10-21T07:53:12.255Z,55
2022-10-21T07:54:08.357Z,56
2022-10-21T07:55:10.377Z,56
2022-10-21T07:56:12.305Z,55
2022-10-21T07:57:14.303Z,55
2022-10-21T07:58:16.317Z,55
2022-10-21T07:59:18.331Z,55
2022-10-21T08:00:20.462Z,55
2022-10-21T08:01:22.420Z,56
2022-10-21T08:02:24.318Z,56
2022-10-21T08:03:26.379Z,56
2022-10-21T08:04:28.436Z,56
2022-10-21T08:05:30.277Z,55
2022-10-21T08:06:32.297Z,54
2022-10-21T08:07:34.365Z,54
2022-10-21T08:08:36.430Z,54
2022-10-21T08:09:38.378Z,54
2022-10-21T08:10:42.669Z,54
2022-10-21T08:11:44.421Z,54
2022-10-21T08:12:46.278Z,54
2022-10-21T08:13:48.338Z,54
2022-10-21T08:14:50.413Z,54
2022-10-21T08:15:52.342Z,56
2022-10-21T08:16:54.859Z,56
2022-10-21T08:17:56.378Z,55
2022-10-21T08:18:58.357Z,54
2022-10-21T08:20:00.396Z,55
2022-10-21T08:21:02.445Z,54
2022-10-21T08:22:04.417Z,55
2022-10-21T08:23:06.302Z,55
2022-10-21T08:24:08.457Z,55
2022-10-21T08:25:10.423Z,55
2022-10-21T08:26:12.337Z,54
2022-10-21T08:27:14.471Z,55
2022-10-21T08:28:16.398Z,54
2022-10-21T08:29:18.326Z,54
2022-10-21T08:30:20.472Z,54
2022-10-21T08:31:22.399Z,55
2022-10-21T08:32:24.378Z,55
2022-10-21T08:33:26.397Z,54
2022-10-21T08:34:28.337Z,54
2022-10-21T08:35:30.358Z,53
2022-10-21T08:36:32.345Z,54
2022-10-21T08:37:34.399Z,54
2022-10-21T08:38:36.392Z,53
2022-10-21T08:39:38.342Z,53
2022-10-21T08:40:40.276Z,54
2022-10-21T08:41:42.358Z,53
2022-10-21T08:42:44.309Z,53
2022-10-21T08:43:46.377Z,54
2022-10-21T08:44:48.376Z,53
2022-10-21T08:45:50.486Z,54
2022-10-21T08:46:52.482Z,54
2022-10-21T08:47:54.928Z,53
2022-10-21T08:48:56.398Z,53
2022-10-21T08:49:58.338Z,53
2022-10-21T08:51:00.336Z,53
2022-10-21T08:52:02.423Z,53
2022-10-21T08:53:04.445Z,55
2022-10-21T08:54:06.361Z,53
2022-10-21T08:55:08.331Z,53
2022-10-21T08:56:10.448Z,55
2022-10-21T08:57:12.468Z,55
2022-10-21T08:58:15.404Z,54
2022-10-21T08:59:16.461Z,53
2022-10-21T09:00:18.418Z,53
2022-10-21T09:01:20.419Z,54
2022-10-21T09:02:22.439Z,53
2022-10-21T09:03:24.480Z,53
2022-10-21T09:04:26.441Z,54
2022-10-21T09:05:28.421Z,54
2022-10-21T09:06:30.418Z,54
2022-10-21T09:07:32.377Z,54
2022-10-21T09:08:34.615Z,55
2022-10-21T09:09:36.362Z,55
2022-10-21T09:10:38.399Z,54
2022-10-21T09:11:40.402Z,54
2022-10-21T09:12:42.398Z,54
2022-10-21T09:13:44.438Z,55
2022-10-21T09:14:46.345Z,54
2022-10-21T09:15:48.417Z,54
2022-10-21T09:16:50.425Z,54
2022-10-21T09:17:52.378Z,54
2022-10-21T09:18:54.917Z,53
2022-10-21T09:19:56.417Z,54
2022-10-21T09:21:00.493Z,55
2022-10-21T09:22:10.730Z,54
2022-10-21T09:23:02.551Z,55
2022-10-21T09:24:04.317Z,56
2022-10-21T09:25:06.540Z,55
2022-10-21T09:26:08.350Z,55
2022-10-21T09:27:10.397Z,54
2022-10-21T09:28:12.357Z,54
2022-10-21T09:29:14.458Z,54
2022-10-21T09:30:16.537Z,55
2022-10-21T09:31:18.421Z,53
2022-10-21T09:32:20.508Z,54
2022-10-21T09:33:22.543Z,54
2022-10-21T09:34:24.417Z,54
2022-10-21T09:35:26.437Z,54
2022-10-21T09:36:28.417Z,55
2022-10-21T09:37:31.694Z,54
2022-10-21T09:38:32.346Z,54
2022-10-21T09:39:34.458Z,54
2022-10-21T09:40:36.617Z,54
2022-10-21T09:41:38.638Z,54
2022-10-21T09:42:47.204Z,54
2022-10-21T09:43:42.397Z,54
2022-10-21T09:44:44.408Z,55
2022-10-21T09:45:46.460Z,54
2022-10-21T09:46:48.397Z,53
2022-10-21T09:47:50.336Z,54
2022-10-21T09:49:36.627Z,55
2022-10-21T09:50:06.729Z,54
2022-10-21T09:50:56.440Z,54
2022-10-21T09:51:58.373Z,54
2022-10-21T09:53:00.464Z,53
2022-10-21T09:54:02.457Z,54
2022-10-21T09:55:04.465Z,54
2022-10-21T09:56:06.420Z,53
2022-10-21T09:57:08.509Z,54
2022-10-21T09:58:10.452Z,53
2022-10-21T09:59:12.344Z,53
2022-10-21T10:00:14.604Z,53
2022-10-21T10:01:16.498Z,54
2022-10-21T10:02:18.524Z,54
2022-10-21T10:03:20.378Z,54
2022-10-21T10:04:22.359Z,55
2022-10-21T10:05:24.380Z,54
2022-10-21T10:06:26.485Z,54
2022-10-21T10:07:28.437Z,55
2022-10-21T10:08:30.437Z,55
2022-10-21T10:09:32.377Z,55
2022-10-21T10:10:34.424Z,54
2022-10-21T10:11:36.557Z,54
2022-10-21T10:12:38.646Z,54
2022-10-21T10:13:40.417Z,54
2022-10-21T10:14:42.431Z,53
2022-10-21T10:15:44.460Z,54
2022-10-21T10:16:46.458Z,54
2022-10-21T10:17:48.385Z,53
2022-10-21T10:18:50.405Z,53
2022-10-21T10:19:52.445Z,54
2022-10-21T10:20:54.997Z,53
2022-10-21T10:21:56.517Z,53
2022-10-21T10:22:58.410Z,52
2022-10-21T10:24:00.383Z,54
2022-10-21T10:25:02.479Z,55
2022-10-21T10:26:04.597Z,54
2022-10-21T10:27:06.445Z,54
2022-10-21T10:28:08.456Z,53
2022-10-21T10:29:10.398Z,53
2022-10-21T10:30:12.437Z,53
2022-10-21T10:31:14.437Z,54
2022-10-21T10:32:16.445Z,54
2022-10-21T10:33:18.438Z,53
2022-10-21T10:34:20.411Z,54
2022-10-21T10:35:22.557Z,53
2022-10-21T10:36:24.438Z,53
2022-10-21T10:37:26.436Z,53
2022-10-21T10:38:28.503Z,53
2022-10-21T10:39:30.459Z,54
2022-10-21T10:40:32.452Z,52
2022-10-21T10:41:34.498Z,53
2022-10-21T10:42:36.720Z,54
2022-10-21T10:43:38.499Z,53
2022-10-21T10:44:40.463Z,53
2022-10-21T10:45:42.483Z,53
2022-10-21T10:46:44.575Z,53
2022-10-21T10:47:46.416Z,53
2022-10-21T10:48:48.424Z,53
2022-10-21T10:49:50.537Z,54
2022-10-21T10:50:52.560Z,54
2022-10-21T10:51:54.436Z,54
2022-10-21T10:52:56.538Z,55
2022-10-21T10:53:58.458Z,54
2022-10-21T10:55:00.512Z,54
2022-10-21T10:56:02.478Z,53
2022-10-21T10:57:04.500Z,54
2022-10-21T10:58:11.638Z,53
2022-10-21T10:59:08.457Z,54
2022-10-21T11:00:10.498Z,54
2022-10-21T11:01:12.498Z,54
2022-10-21T11:02:14.497Z,54
2022-10-21T11:03:16.440Z,54
2022-10-21T11:04:18.462Z,54
2022-10-21T11:05:20.519Z,53
2022-10-21T11:06:22.560Z,54
2022-10-21T11:07:24.417Z,53
2022-10-21T11:08:27.919Z,53
2022-10-21T11:09:28.567Z,52
2022-10-21T11:10:30.578Z,53
2022-10-21T11:11:32.541Z,52
2022-10-21T11:12:34.477Z,52
2022-10-21T11:13:40.034Z,51
2022-10-21T11:14:38.505Z,51
2022-10-21T11:15:40.438Z,52
2022-10-21T11:16:57.220Z,52
2022-10-21T11:17:44.437Z,51
2022-10-21T11:18:49.577Z,51
2022-10-21T11:19:48.497Z,52
2022-10-21T11:20:50.482Z,52
2022-10-21T11:21:52.628Z,54
2022-10-21T11:22:54.561Z,52
2022-10-21T11:23:57.671Z,52
2022-10-21T11:24:58.437Z,52
2022-10-21T11:26:00.377Z,52
2022-10-21T11:27:02.537Z,51
2022-10-21T11:28:04.468Z,51
2022-10-21T11:29:06.477Z,52
2022-10-21T11:30:08.517Z,53
2022-10-21T11:31:10.457Z,52
2022-10-21T11:32:12.719Z,52
2022-10-21T11:33:14.657Z,52
2022-10-21T11:34:16.484Z,53
2022-10-21T11:35:18.457Z,52
2022-10-21T11:36:20.478Z,52
2022-10-21T11:37:22.703Z,51
2022-10-21T11:38:24.460Z,52
2022-10-21T11:39:26.477Z,53
2022-10-21T11:40:28.477Z,52
2022-10-21T11:41:30.438Z,53
2022-10-21T11:42:32.477Z,53
2022-10-21T11:43:34.482Z,52
2022-10-21T11:44:36.505Z,53
2022-10-21T11:45:38.488Z,53
2022-10-21T11:46:40.451Z,53
2022-10-21T11:47:42.482Z,53
2022-10-21T11:48:44.477Z,52
2022-10-21T11:49:46.466Z,52
2022-10-21T11:50:48.478Z,52
2022-10-21T11:51:50.477Z,53
2022-10-21T11:52:52.563Z,54
2022-10-21T11:53:54.504Z,54
2022-10-21T11:55:08.511Z,53
2022-10-21T11:55:58.482Z,54
2022-10-21T11:57:00.477Z,53
2022-10-21T11:58:02.553Z,54
2022-10-21T11:59:04.454Z,54
2022-10-21T12:00:06.537Z,53
2022-10-21T12:01:08.465Z,53
2022-10-21T12:02:10.552Z,53
2022-10-21T12:03:12.443Z,53
2022-10-21T12:04:14.619Z,53
2022-10-21T12:05:16.460Z,52
2022-10-21T12:06:18.497Z,54
2022-10-21T12:07:20.521Z,53
2022-10-21T12:08:22.689Z,53
2022-10-21T12:09:24.410Z,53
2022-10-21T12:10:26.454Z,54
2022-10-21T12:11:28.415Z,54
2022-10-21T12:12:30.411Z,55
2022-10-21T12:13:32.457Z,53
2022-10-21T12:14:34.437Z,55
2022-10-21T12:15:36.464Z,54
2022-10-21T12:16:38.494Z,55
2022-10-21T12:17:40.458Z,53
2022-10-21T12:18:42.471Z,53
2022-10-21T12:19:44.455Z,53
2022-10-21T12:20:46.397Z,54
2022-10-21T12:21:48.458Z,54
2022-10-21T12:22:50.566Z,53
2022-10-21T12:23:52.617Z,53
2022-10-21T12:24:54.457Z,53
2022-10-21T12:25:56.516Z,52
2022-10-21T12:26:58.458Z,55
2022-10-21T12:28:00.454Z,54
2022-10-21T12:29:02.715Z,53
2022-10-21T12:30:04.614Z,54
2022-10-21T12:31:06.417Z,56
2022-10-21T12:32:08.469Z,54
2022-10-21T12:33:10.418Z,54
2022-10-21T12:34:12.438Z,56
2022-10-21T12:35:14.462Z,53
2022-10-21T12:36:16.458Z,54
2022-10-21T12:37:18.540Z,54
2022-10-21T12:38:20.496Z,55
2022-10-21T12:39:22.556Z,55
2022-10-21T12:40:24.497Z,55
2022-10-21T12:41:26.518Z,54
2022-10-21T12:42:28.497Z,53
2022-10-21T12:43:30.440Z,54
2022-10-21T12:44:32.548Z,54
2022-10-21T12:45:34.537Z,54
2022-10-21T12:46:37.617Z,54
2022-10-21T12:47:38.749Z,53
2022-10-21T12:48:40.562Z,53
2022-10-21T12:49:42.469Z,54
2022-10-21T12:50:44.546Z,55
2022-10-21T12:51:46.444Z,55
2022-10-21T12:52:48.536Z,54
2022-10-21T12:54:52.583Z,54
2022-10-21T12:55:54.478Z,53
2022-10-21T12:56:56.515Z,54
2022-10-21T12:57:58.517Z,54
2022-10-21T12:59:00.488Z,54
2022-10-21T13:00:02.617Z,54
2022-10-21T13:01:04.573Z,54
2022-10-21T13:02:06.539Z,54
2022-10-21T13:03:08.516Z,54
2022-10-21T13:04:10.497Z,54
2022-10-21T13:05:12.439Z,55
2022-10-21T13:06:14.577Z,55
2022-10-21T13:07:16.493Z,55
2022-10-21T13:08:18.497Z,54
2022-10-21T13:09:20.494Z,54
2022-10-21T13:10:22.521Z,54
2022-10-21T13:11:24.500Z,54
2022-10-21T13:12:26.537Z,54
2022-10-21T13:13:28.518Z,54
2022-10-21T13:14:33.581Z,54
2022-10-21T13:15:32.537Z,54
2022-10-21T13:16:34.584Z,54
2022-10-21T13:17:36.437Z,55
2022-10-21T13:18:38.480Z,55
2022-10-21T13:19:40.524Z,53
2022-10-21T13:20:42.414Z,54
2022-10-21T13:21:43.465Z,55
2022-10-21T13:22:45.459Z,54
2022-10-21T13:23:47.517Z,54
2022-10-21T13:24:49.489Z,54
2022-10-21T13:25:51.465Z,54
2022-10-21T13:26:53.477Z,54
2022-10-21T13:27:55.520Z,54
2022-10-21T13:28:57.497Z,54
2022-10-21T13:29:59.523Z,54
2022-10-21T13:31:01.561Z,55
2022-10-21T13:32:03.521Z,56
2022-10-21T13:33:05.523Z,56
2022-10-21T13:34:07.505Z,56
2022-10-21T13:35:09.587Z,55
2022-10-21T13:36:11.458Z,54
2022-10-21T13:37:13.519Z,54
2022-10-21T13:38:15.445Z,53
2022-10-21T13:39:17.437Z,54
2022-10-21T13:40:19.473Z,54
2022-10-21T13:41:21.482Z,55
2022-10-21T13:42:24.943Z,54
2022-10-21T13:43:25.477Z,55
2022-10-21T13:44:27.380Z,54
2022-10-21T13:45:28.652Z,54
2022-10-21T13:46:30.477Z,54
2022-10-21T13:47:32.471Z,54
2022-10-21T13:48:34.500Z,54
2022-10-21T13:49:36.505Z,53
2022-10-21T13:50:38.658Z,54
2022-10-21T13:51:40.495Z,55
2022-10-21T13:52:42.526Z,54
2022-10-21T13:53:44.497Z,54
2022-10-21T13:54:46.474Z,53
2022-10-21T13:55:48.565Z,54
2022-10-21T13:56:50.529Z,54
2022-10-21T13:57:52.444Z,53
2022-10-21T13:58:54.480Z,54
2022-10-21T13:59:56.496Z,54
2022-10-21T14:00:58.913Z,54
2022-10-21T14:02:00.538Z,54
2022-10-21T14:03:02.557Z,54
2022-10-21T14:04:06.418Z,54
2022-10-21T14:05:06.570Z,55
2022-10-21T14:06:08.554Z,55
2022-10-21T14:07:10.453Z,55
2022-10-21T14:08:12.483Z,54
2022-10-21T14:09:14.595Z,55
2022-10-21T14:10:16.638Z,55
2022-10-21T14:11:18.605Z,54
2022-10-21T14:12:20.462Z,54
2022-10-21T14:13:22.478Z,53
2022-10-21T14:14:24.584Z,54
2022-10-21T14:15:26.498Z,54
2022-10-21T14:16:28.430Z,54
2022-10-21T14:17:29.480Z,56
2022-10-21T14:18:33.531Z,56
2022-10-21T14:19:33.584Z,54
2022-10-21T14:20:35.577Z,54
2022-10-21T14:21:37.577Z,54
2022-10-21T14:22:39.875Z,54
2022-10-21T14:23:41.596Z,54
2022-10-21T14:24:43.566Z,55
2022-10-21T14:25:45.579Z,53
2022-10-21T14:26:47.605Z,54
2022-10-21T14:27:49.688Z,54
2022-10-21T14:28:51.577Z,53
2022-10-21T14:29:53.616Z,54
2022-10-21T14:30:55.574Z,54
2022-10-21T14:31:57.662Z,53
2022-10-21T14:32:59.621Z,53
2022-10-21T14:34:01.656Z,54
2022-10-21T14:35:03.665Z,53
2022-10-21T14:36:05.619Z,54
2022-10-21T14:37:08.022Z,54
2022-10-21T14:38:09.657Z,54
2022-10-21T14:39:11.557Z,54
2022-10-21T14:40:13.582Z,54
2022-10-21T14:41:15.550Z,54
2022-10-21T14:42:17.549Z,54
2022-10-21T14:43:19.745Z,54
2022-10-21T14:44:21.550Z,54
2022-10-21T14:45:23.554Z,54
2022-10-21T14:46:25.500Z,53
2022-10-21T14:47:27.471Z,53
2022-10-21T14:48:29.539Z,53
2022-10-21T14:49:31.544Z,53
2022-10-21T14:50:33.608Z,54
2022-10-21T14:51:35.589Z,53
2022-10-21T14:52:37.833Z,54
2022-10-21T14:53:39.562Z,53
2022-10-21T14:54:41.540Z,53